Time;durP1;ratioP1;P1;durP2;ratioP2;P2;SDS_P1;SDS_P2;PMS_P1;PMS_P2;Temp;Humidity;BMP_temperature;BMP_pressure;BME280_temperature;BME280_humidity;BME280_pressure;Samples;Min_cycle;Max_cycle;Signal;HPM_P1;HPM_P2
2022/12/30 00:00:11;;;;;;;1.75;1.40;;;18.30;54.30;;;;;;5054739;28;20175;-60
2022/12/30 00:02:36;;;;;;;3.40;1.60;;;18.30;54.40;;;;;;5054599;28;20175;-59
2022/12/30 00:05:02;;;;;;;4.22;1.83;;;18.30;54.40;;;;;;5055772;28;20258;-59
2022/12/30 00:07:28;;;;;;;4.70;1.73;;;18.30;54.30;;;;;;5054783;28;20322;-59
2022/12/30 00:09:53;;;;;;;3.05;1.88;;;18.30;54.30;;;;;;5055159;28;20253;-59
2022/12/30 00:34:28;;;;;;;2.92;1.63;;;18.10;54.30;;;;;;5054013;28;20178;-59
2022/12/30 00:36:54;;;;;;;2.65;1.40;;;18.10;54.30;;;;;;5052905;28;20189;-59
2022/12/30 00:39:19;;;;;;;3.70;1.50;;;18.10;54.30;;;;;;5053644;28;20258;-60
2022/12/30 00:44:29;;;;;;;3.20;1.50;;;18.00;54.20;;;;;;5053961;28;20266;-60
2022/12/30 00:46:54;;;;;;;3.67;1.65;;;18.10;54.30;;;;;;5054495;28;20744;-59
2022/12/30 00:57:32;;;;;;;2.83;1.60;;;18.00;54.30;;;;;;5065572;28;20178;-59
2022/12/30 00:59:58;;;;;;;2.75;1.73;;;18.00;54.20;;;;;;5054473;28;20179;-59
2022/12/30 01:02:23;;;;;;;4.28;1.50;;;18.00;54.20;;;;;;5072735;28;20396;-59
2022/12/30 01:04:49;;;;;;;3.08;1.58;;;18.00;54.20;;;;;;5073141;28;20269;-59
2022/12/30 01:07:14;;;;;;;4.60;1.25;;;17.90;54.20;;;;;;5074398;28;20214;-59
2022/12/30 01:09:40;;;;;;;3.92;1.67;;;18.00;54.30;;;;;;5065992;28;20163;-59
2022/12/30 01:12:08;;;;;;;3.58;1.55;;;18.00;54.30;;;;;;5053730;28;20308;-59
2022/12/30 01:14:45;;;;;;;2.60;1.40;;;18.00;54.30;;;;;;5053952;28;20183;-60
2022/12/30 01:17:12;;;;;;;3.08;1.50;;;17.90;54.30;;;;;;5053922;28;20674;-59
2022/12/30 01:19:37;;;;;;;4.25;1.48;;;17.90;54.30;;;;;;5053229;28;20214;-59
2022/12/30 01:22:04;;;;;;;2.08;1.30;;;17.90;54.30;;;;;;5053938;28;20264;-59
2022/12/30 01:24:29;;;;;;;2.15;1.30;;;17.90;54.30;;;;;;5053440;28;20190;-59
2022/12/30 01:26:55;;;;;;;2.45;1.60;;;17.90;54.40;;;;;;5062915;28;20214;-59
2022/12/30 01:29:34;;;;;;;2.88;1.50;;;17.90;54.40;;;;;;5074113;28;20185;-59
2022/12/30 01:31:59;;;;;;;1.95;1.10;;;17.90;54.50;;;;;;5073124;28;20184;-59
2022/12/30 01:34:25;;;;;;;3.33;1.65;;;17.90;54.30;;;;;;5073924;28;20261;-62
2022/12/30 01:36:51;;;;;;;2.63;1.52;;;17.80;54.30;;;;;;5073515;28;20214;-60
2022/12/30 01:39:17;;;;;;;2.22;1.33;;;17.80;54.30;;;;;;5073046;28;20564;-60
2022/12/30 01:41:42;;;;;;;3.00;1.42;;;17.80;54.30;;;;;;5073382;28;20519;-59
2022/12/30 01:44:45;;;;;;;3.20;1.42;;;17.80;54.30;;;;;;5073555;28;20575;-60
2022/12/30 01:47:12;;;;;;;2.67;1.52;;;17.80;54.30;;;;;;5072614;28;20221;-59
2022/12/30 01:49:39;;;;;;;2.88;1.20;;;17.80;54.30;;;;;;5071916;28;20633;-59
2022/12/30 01:52:04;;;;;;;2.33;1.30;;;17.80;54.30;;;;;;5073592;28;20244;-59
2022/12/30 01:54:30;;;;;;;3.22;1.50;;;17.80;54.30;;;;;;5072860;28;20174;-59
2022/12/30 01:56:56;;;;;;;1.73;1.30;;;17.80;54.30;;;;;;5054936;28;20182;-59
2022/12/30 01:59:23;;;;;;;4.00;1.52;;;17.70;54.30;;;;;;5072077;28;20178;-59
2022/12/30 02:01:49;;;;;;;2.42;1.40;;;17.80;54.30;;;;;;5056481;28;20177;-59
2022/12/30 02:04:16;;;;;;;4.25;1.33;;;17.70;54.30;;;;;;5053254;28;20175;-59
2022/12/30 02:07:05;;;;;;;2.83;1.30;;;17.70;54.30;;;;;;5050969;28;20210;-59
2022/12/30 02:09:31;;;;;;;2.03;1.30;;;17.70;54.30;;;;;;5052596;28;20175;-59
2022/12/30 02:11:57;;;;;;;2.78;1.42;;;17.70;54.20;;;;;;5052136;28;20258;-59
2022/12/30 02:14:23;;;;;;;2.78;1.50;;;17.70;54.20;;;;;;5034660;28;20258;-59
2022/12/30 02:16:59;;;;;;;2.63;1.50;;;17.70;54.20;;;;;;5051327;28;20249;-59
2022/12/30 02:19:45;;;;;;;3.90;1.60;;;17.70;54.20;;;;;;5052008;28;20175;-59
2022/12/30 02:22:28;;;;;;;3.08;1.52;;;17.60;54.20;;;;;;5051079;28;20181;-60
2022/12/30 02:25:23;;;;;;;2.10;1.25;;;17.70;54.30;;;;;;5051679;28;20179;-59
2022/12/30 02:28:00;;;;;;;3.08;1.55;;;17.60;54.20;;;;;;5043938;28;20648;-58
2022/12/30 02:30:34;;;;;;;2.08;1.20;;;17.60;54.20;;;;;;5052820;28;20179;-59
2022/12/30 02:33:03;;;;;;;2.38;1.13;;;17.60;54.20;;;;;;5053006;28;20220;-59
2022/12/30 02:35:48;;;;;;;3.20;1.60;;;17.60;54.20;;;;;;5052265;28;20179;-59
2022/12/30 02:38:47;;;;;;;1.85;1.15;;;17.60;54.20;;;;;;5052933;28;20170;-59
2022/12/30 02:44:50;;;;;;;2.35;1.20;;;17.60;54.20;;;;;;5038888;28;20178;-59
2022/12/30 02:47:20;;;;;;;2.75;1.27;;;17.60;54.20;;;;;;5049495;28;20218;-59
2022/12/30 02:52:14;;;;;;;2.72;1.52;;;17.60;54.20;;;;;;5050522;28;20695;-59
2022/12/30 02:52:35;;;;;;;2.60;1.60;;;17.60;54.20;;;;;;5051452;28;20189;-59
2022/12/30 02:55:00;;;;;;;3.75;1.45;;;17.50;54.20;;;;;;5034890;28;20257;-58
2022/12/30 02:57:30;;;;;;;2.15;1.20;;;17.50;54.20;;;;;;5050694;28;20686;-59
2022/12/30 03:05:36;;;;;;;2.75;1.45;;;17.50;54.20;;;;;;5052330;28;20549;-59
2022/12/30 03:08:06;;;;;;;2.80;1.10;;;17.50;54.20;;;;;;5055135;28;20660;-59
2022/12/30 03:13:46;;;;;;;2.33;1.08;;;17.50;54.20;;;;;;5056206;28;20178;-59
2022/12/30 03:16:19;;;;;;;4.03;1.42;;;17.50;54.20;;;;;;5056429;28;20171;-59
2022/12/30 03:18:44;;;;;;;3.78;1.65;;;17.50;54.20;;;;;;5054137;28;20235;-59
2022/12/30 03:21:11;;;;;;;3.45;1.52;;;17.50;54.30;;;;;;5055385;28;20167;-60
2022/12/30 03:29:27;;;;;;;2.72;1.50;;;17.40;54.20;;;;;;5054179;28;20221;-59
2022/12/30 03:31:53;;;;;;;2.03;1.45;;;17.40;54.20;;;;;;5052865;28;20201;-59
2022/12/30 03:34:18;;;;;;;2.40;1.33;;;17.40;54.20;;;;;;5054608;28;20622;-59
2022/12/30 03:36:46;;;;;;;4.78;2.20;;;17.40;54.20;;;;;;5054754;28;20182;-59
2022/12/30 03:39:11;;;;;;;2.30;1.20;;;17.40;54.30;;;;;;5055210;28;20203;-60
2022/12/30 03:41:37;;;;;;;1.95;1.10;;;17.40;54.30;;;;;;5055837;28;20202;-60
2022/12/30 03:44:03;;;;;;;2.25;1.38;;;17.40;54.20;;;;;;5038315;28;20198;-59
2022/12/30 03:46:31;;;;;;;2.65;1.08;;;17.40;54.20;;;;;;5055177;28;20230;-59
2022/12/30 03:48:56;;;;;;;2.30;1.40;;;17.40;54.20;;;;;;5054686;28;20237;-59
2022/12/30 03:51:22;;;;;;;2.75;1.40;;;17.30;54.20;;;;;;5055765;28;20626;-59
2022/12/30 03:53:47;;;;;;;2.05;1.25;;;17.40;54.20;;;;;;5054644;28;20190;-59
2022/12/30 03:56:13;;;;;;;2.47;1.02;;;17.30;54.20;;;;;;5055621;28;20644;-59
2022/12/30 03:58:38;;;;;;;4.82;1.65;;;17.30;54.20;;;;;;5055511;28;20262;-59
2022/12/30 04:01:04;;;;;;;3.60;1.60;;;17.30;54.20;;;;;;5054953;28;20198;-59
2022/12/30 04:03:29;;;;;;;3.05;1.42;;;17.30;54.20;;;;;;5055781;28;20175;-59
2022/12/30 04:05:55;;;;;;;1.67;1.23;;;17.30;54.20;;;;;;5055302;28;20564;-59
2022/12/30 04:08:21;;;;;;;2.60;1.40;;;17.40;54.20;;;;;;5054634;28;20195;-59
2022/12/30 04:10:47;;;;;;;1.52;1.00;;;17.30;54.20;;;;;;5055064;28;20583;-59
2022/12/30 04:13:13;;;;;;;2.15;1.27;;;17.30;54.20;;;;;;5054838;28;20269;-59
2022/12/30 04:15:38;;;;;;;3.00;1.25;;;17.30;54.20;;;;;;5055115;28;20179;-60
2022/12/30 04:18:04;;;;;;;2.83;1.45;;;17.30;54.20;;;;;;5054937;28;20541;-60
2022/12/30 04:20:29;;;;;;;2.47;1.27;;;17.30;54.20;;;;;;5054217;28;20233;-59
2022/12/30 04:22:57;;;;;;;2.65;1.60;;;17.30;54.20;;;;;;5054949;28;20662;-59
2022/12/30 04:25:23;;;;;;;2.47;1.00;;;17.30;54.20;;;;;;5055361;28;20198;-59
2022/12/30 04:27:48;;;;;;;2.33;1.58;;;17.30;54.20;;;;;;5054174;28;20249;-58
2022/12/30 04:30:14;;;;;;;2.90;1.60;;;17.20;54.20;;;;;;5055019;28;20542;-59
2022/12/30 04:32:39;;;;;;;2.58;1.50;;;17.30;54.20;;;;;;5054642;28;20660;-60
2022/12/30 04:35:05;;;;;;;2.58;1.30;;;17.20;54.20;;;;;;5054292;28;20186;-60
2022/12/30 04:37:31;;;;;;;3.05;1.58;;;17.20;54.20;;;;;;5054634;28;20664;-60
2022/12/30 04:39:56;;;;;;;2.67;1.42;;;17.20;54.20;;;;;;5055020;28;20175;-60
2022/12/30 04:42:22;;;;;;;1.88;1.25;;;17.20;54.20;;;;;;5054267;28;20267;-60
2022/12/30 04:44:47;;;;;;;2.53;1.25;;;17.20;54.30;;;;;;5054528;28;20262;-60
2022/12/30 04:47:13;;;;;;;4.47;1.52;;;17.20;54.20;;;;;;5054749;28;20298;-60
2022/12/30 04:49:38;;;;;;;4.38;1.40;;;17.20;54.20;;;;;;5053710;28;20258;-61
2022/12/30 04:52:04;;;;;;;3.40;1.27;;;17.20;54.20;;;;;;5054562;28;20190;-60
2022/12/30 04:54:29;;;;;;;2.38;1.27;;;17.20;54.20;;;;;;5054786;28;20689;-60
2022/12/30 04:56:55;;;;;;;2.30;1.15;;;17.10;54.10;;;;;;5053675;28;20182;-60
2022/12/30 04:59:21;;;;;;;3.88;1.50;;;17.20;54.20;;;;;;5054608;28;20171;-60
2022/12/30 05:01:47;;;;;;;2.25;1.42;;;17.10;54.10;;;;;;5054343;28;20547;-60
2022/12/30 05:04:12;;;;;;;2.35;1.30;;;17.10;54.20;;;;;;5053685;28;20182;-60
2022/12/30 05:06:38;;;;;;;2.22;1.48;;;17.20;54.20;;;;;;5053857;28;20203;-60
2022/12/30 05:09:04;;;;;;;5.03;1.60;;;17.10;54.20;;;;;;5054460;28;20194;-60
2022/12/30 05:11:29;;;;;;;2.40;1.10;;;17.10;54.20;;;;;;5053788;28;20171;-60
2022/12/30 05:13:55;;;;;;;3.90;1.70;;;17.10;54.20;;;;;;5054120;28;20174;-60
2022/12/30 05:16:20;;;;;;;3.35;1.10;;;17.10;54.20;;;;;;5054163;28;20167;-61
2022/12/30 05:18:46;;;;;;;2.00;1.42;;;17.10;54.20;;;;;;5053151;28;20231;-61
2022/12/30 05:21:11;;;;;;;2.42;1.23;;;17.10;54.20;;;;;;5054028;28;20225;-61
2022/12/30 05:26:21;;;;;;;2.85;1.60;;;17.10;54.20;;;;;;5053952;28;20210;-60
2022/12/30 05:28:47;;;;;;;2.38;1.38;;;17.10;54.20;;;;;;5053652;28;20183;-60
2022/12/30 05:31:13;;;;;;;3.10;1.48;;;17.10;54.20;;;;;;5053009;28;20167;-60
2022/12/30 05:33:38;;;;;;;2.97;1.48;;;17.00;54.20;;;;;;5053506;28;20693;-60
2022/12/30 05:36:04;;;;;;;4.13;1.60;;;17.00;54.20;;;;;;5054130;28;20543;-60
2022/12/30 05:38:30;;;;;;;2.28;1.45;;;17.00;54.20;;;;;;5053303;28;20305;-61
2022/12/30 05:40:55;;;;;;;2.92;1.20;;;17.00;54.20;;;;;;5053811;28;20179;-61
2022/12/30 05:43:21;;;;;;;3.33;1.23;;;17.00;54.20;;;;;;5053743;28;20633;-61
2022/12/30 05:45:47;;;;;;;1.85;1.33;;;17.00;54.10;;;;;;5052601;28;20714;-61
2022/12/30 05:48:12;;;;;;;2.88;1.27;;;17.00;54.20;;;;;;5053430;28;20182;-60
2022/12/30 05:50:39;;;;;;;2.20;1.38;;;17.00;54.40;;;;;;5053412;28;20173;-60
2022/12/30 05:53:04;;;;;;;2.60;1.30;;;17.00;54.20;;;;;;5052949;28;20179;-60
2022/12/30 05:55:30;;;;;;;1.60;1.30;;;17.00;54.20;;;;;;5053510;28;20324;-60
2022/12/30 05:57:56;;;;;;;2.58;1.48;;;17.00;54.20;;;;;;5053411;28;20603;-61
2022/12/30 06:00:21;;;;;;;3.15;1.20;;;17.00;54.30;;;;;;5052865;28;20175;-60
2022/12/30 06:02:47;;;;;;;2.50;1.60;;;16.90;54.20;;;;;;5052929;28;20175;-60
2022/12/30 06:05:12;;;;;;;4.18;1.58;;;16.90;54.20;;;;;;5053163;28;20638;-60
2022/12/30 06:07:38;;;;;;;2.65;1.63;;;16.90;54.20;;;;;;5052279;28;20210;-60
2022/12/30 06:10:04;;;;;;;4.35;1.52;;;16.90;54.20;;;;;;5053368;28;20548;-60
2022/12/30 06:12:30;;;;;;;3.15;1.48;;;16.90;54.10;;;;;;5053076;28;20641;-60
2022/12/30 06:14:55;;;;;;;3.33;1.90;;;16.90;54.10;;;;;;5052179;28;20182;-60
2022/12/30 06:17:21;;;;;;;3.55;1.77;;;16.90;54.10;;;;;;5053085;28;20309;-60
2022/12/30 06:19:46;;;;;;;4.43;1.50;;;16.90;54.10;;;;;;5052225;28;20261;-61
2022/12/30 06:22:12;;;;;;;2.15;1.35;;;16.90;54.10;;;;;;5053163;28;20262;-60
2022/12/30 06:24:37;;;;;;;3.03;1.50;;;16.90;54.10;;;;;;5052754;28;20553;-61
2022/12/30 06:27:03;;;;;;;2.92;1.70;;;16.80;54.00;;;;;;5052229;28;20202;-60
2022/12/30 06:29:28;;;;;;;3.10;1.42;;;16.80;54.00;;;;;;5052970;28;20177;-60
2022/12/30 06:31:54;;;;;;;2.28;1.50;;;16.80;54.00;;;;;;5052502;28;20183;-60
2022/12/30 06:34:19;;;;;;;2.90;1.63;;;16.80;54.10;;;;;;5052406;28;20168;-60
2022/12/30 06:36:45;;;;;;;2.38;1.38;;;16.80;54.10;;;;;;5052767;28;20170;-61
2022/12/30 06:39:10;;;;;;;2.95;1.20;;;16.80;54.10;;;;;;5053012;28;20309;-61
2022/12/30 06:41:36;;;;;;;2.60;1.33;;;16.80;54.00;;;;;;5051345;28;20304;-61
2022/12/30 06:44:01;;;;;;;3.47;1.50;;;16.80;54.00;;;;;;5052810;28;20250;-61
2022/12/30 06:46:27;;;;;;;2.65;1.30;;;16.80;54.10;;;;;;5052750;28;20732;-61
2022/12/30 06:48:52;;;;;;;3.03;1.50;;;16.80;54.00;;;;;;5051714;28;20651;-60
2022/12/30 06:51:18;;;;;;;3.83;1.60;;;16.80;54.00;;;;;;5052721;28;20645;-60
2022/12/30 06:53:43;;;;;;;2.28;1.50;;;16.80;54.00;;;;;;5052394;28;20254;-60
2022/12/30 06:56:09;;;;;;;2.28;1.42;;;16.80;54.00;;;;;;5052145;28;20300;-61
2022/12/30 06:58:34;;;;;;;2.92;1.35;;;16.80;54.10;;;;;;5052406;28;20262;-60
2022/12/30 07:01:00;;;;;;;2.80;1.70;;;16.70;54.00;;;;;;5052687;28;20177;-60
2022/12/30 07:03:25;;;;;;;4.75;1.45;;;16.70;54.00;;;;;;5051919;28;20237;-60
2022/12/30 07:05:51;;;;;;;3.38;1.63;;;16.70;53.90;;;;;;5052139;28;20701;-60
2022/12/30 07:08:16;;;;;;;4.55;1.63;;;16.70;53.90;;;;;;5052556;28;20262;-61
2022/12/30 07:10:42;;;;;;;3.50;1.50;;;16.70;53.90;;;;;;5051600;28;20274;-61
2022/12/30 07:13:08;;;;;;;4.75;1.63;;;16.70;53.90;;;;;;5052412;28;20179;-61
2022/12/30 07:15:33;;;;;;;3.65;1.63;;;16.70;53.90;;;;;;5051237;28;20167;-61
2022/12/30 07:17:59;;;;;;;4.10;1.20;;;16.70;53.90;;;;;;5051478;28;20229;-61
2022/12/30 07:20:24;;;;;;;2.42;1.45;;;16.70;53.90;;;;;;5052633;28;20596;-60
2022/12/30 07:22:50;;;;;;;4.05;1.80;;;16.70;53.90;;;;;;5052264;28;20194;-60
2022/12/30 07:25:15;;;;;;;4.63;1.75;;;16.70;53.90;;;;;;5051643;28;20675;-59
2022/12/30 07:27:41;;;;;;;3.28;1.60;;;16.70;53.90;;;;;;5051952;28;20242;-60
2022/12/30 07:30:07;;;;;;;3.80;1.50;;;16.70;53.90;;;;;;5051760;28;20167;-60
2022/12/30 07:32:32;;;;;;;4.50;1.60;;;16.60;53.80;;;;;;5052022;28;20262;-59
2022/12/30 07:34:58;;;;;;;4.65;1.60;;;16.60;53.80;;;;;;5052499;28;20255;-60
2022/12/30 07:37:23;;;;;;;5.80;1.60;;;16.60;53.80;;;;;;5051642;28;20622;-60
2022/12/30 07:39:49;;;;;;;3.55;1.60;;;16.60;53.90;;;;;;5052112;28;20629;-60
2022/12/30 07:42:14;;;;;;;2.15;1.10;;;16.60;53.80;;;;;;5052312;28;20726;-60
2022/12/30 07:44:41;;;;;;;6.43;1.80;;;16.60;53.80;;;;;;5051216;28;20171;-60
2022/12/30 07:47:06;;;;;;;2.15;1.40;;;16.60;53.80;;;;;;5052060;28;20211;-60
2022/12/30 07:49:32;;;;;;;4.82;1.52;;;16.60;53.90;;;;;;5052034;28;20302;-60
2022/12/30 07:51:57;;;;;;;2.63;1.50;;;16.60;53.80;;;;;;5051532;28;20212;-59
2022/12/30 07:54:23;;;;;;;3.03;1.52;;;16.60;53.90;;;;;;5054052;28;20229;-59
2022/12/30 07:56:48;;;;;;;2.55;1.50;;;16.60;53.90;;;;;;5055620;28;20225;-60
2022/12/30 07:59:14;;;;;;;3.63;1.77;;;16.60;53.80;;;;;;5054896;28;20177;-60
2022/12/30 08:01:39;;;;;;;2.38;1.40;;;16.60;53.80;;;;;;5055208;28;20232;-60
2022/12/30 08:04:05;;;;;;;4.05;1.95;;;16.60;53.80;;;;;;5055941;28;20182;-59
2022/12/30 08:06:31;;;;;;;3.80;1.60;;;16.60;53.80;;;;;;5054585;28;20575;-60
2022/12/30 08:08:56;;;;;;;3.05;1.65;;;16.60;53.90;;;;;;5055495;28;20167;-59
2022/12/30 08:11:22;;;;;;;4.65;1.77;;;16.50;53.80;;;;;;5055390;28;20175;-59
2022/12/30 08:13:47;;;;;;;3.15;1.40;;;16.60;53.90;;;;;;5054254;28;20176;-60
2022/12/30 08:16:16;;;;;;;3.75;2.08;;;16.50;53.80;;;;;;5055228;28;20175;-60
2022/12/30 08:18:42;;;;;;;3.30;1.30;;;16.50;53.80;;;;;;5054850;28;20223;-60
2022/12/30 08:21:10;;;;;;;3.83;1.63;;;16.50;53.80;;;;;;5054421;28;20193;-60
2022/12/30 08:23:35;;;;;;;2.92;1.48;;;16.50;53.80;;;;;;5053772;28;20525;-60
2022/12/30 08:26:12;;;;;;;3.83;1.42;;;16.50;53.80;;;;;;5055041;28;20687;-60
2022/12/30 08:28:38;;;;;;;3.47;1.52;;;16.50;53.80;;;;;;5054081;28;20194;-59
2022/12/30 08:31:11;;;;;;;2.90;1.13;;;16.50;53.80;;;;;;5055281;28;20175;-60
2022/12/30 08:33:36;;;;;;;2.83;1.90;;;16.50;53.80;;;;;;5054421;28;20990;-60
2022/12/30 08:36:03;;;;;;;3.05;1.65;;;16.50;53.80;;;;;;5055085;28;20675;-60
2022/12/30 08:38:28;;;;;;;2.95;1.60;;;16.50;53.80;;;;;;5055007;28;20678;-60
2022/12/30 08:40:54;;;;;;;3.08;1.65;;;16.50;53.80;;;;;;5053895;28;20183;-60
2022/12/30 08:43:20;;;;;;;3.10;1.40;;;16.40;53.80;;;;;;5054778;28;20168;-60
2022/12/30 08:45:54;;;;;;;2.05;1.50;;;16.40;53.80;;;;;;5054645;28;20593;-60
2022/12/30 08:48:20;;;;;;;3.75;1.40;;;16.40;53.80;;;;;;5052878;28;20201;-60
2022/12/30 08:50:45;;;;;;;2.75;1.45;;;16.40;53.80;;;;;;5054449;28;20254;-60
2022/12/30 08:53:11;;;;;;;4.18;1.73;;;16.40;53.80;;;;;;5054646;28;20206;-60
2022/12/30 08:55:36;;;;;;;3.13;1.42;;;16.40;53.80;;;;;;5053715;28;20210;-60
2022/12/30 08:58:02;;;;;;;3.30;1.50;;;16.40;53.80;;;;;;5054481;28;20262;-60
2022/12/30 09:00:27;;;;;;;3.53;1.40;;;16.40;53.90;;;;;;5054619;28;20178;-63
2022/12/30 09:02:53;;;;;;;3.33;1.50;;;16.50;54.00;;;;;;5053433;28;20194;-62
2022/12/30 09:05:18;;;;;;;4.18;1.85;;;16.50;54.20;;;;;;5053837;28;20524;-61
2022/12/30 09:07:44;;;;;;;3.35;1.42;;;16.60;54.00;;;;;;5054020;28;20696;-61
2022/12/30 09:10:11;;;;;;;2.88;1.58;;;16.60;53.90;;;;;;5053487;28;20544;-62
2022/12/30 09:12:37;;;;;;;2.38;1.30;;;16.60;54.30;;;;;;5053865;28;20199;-63
2022/12/30 09:15:03;;;;;;;1.98;1.50;;;16.70;54.70;;;;;;5055316;28;20195;-62
2022/12/30 09:17:28;;;;;;;3.38;1.52;;;16.70;54.90;;;;;;5053522;28;20288;-62
2022/12/30 09:19:54;;;;;;;3.30;1.40;;;16.70;54.60;;;;;;5053969;28;20179;-61
2022/12/30 09:22:19;;;;;;;3.17;1.23;;;16.70;54.80;;;;;;5054046;28;20163;-62
2022/12/30 09:24:45;;;;;;;4.15;1.20;;;16.70;55.20;;;;;;5053099;28;20167;-61
2022/12/30 09:27:10;;;;;;;4.85;1.60;;;16.80;55.90;;;;;;5053876;28;20267;-62
2022/12/30 09:29:36;;;;;;;4.72;1.80;;;16.70;55.20;;;;;;5052936;28;20167;-61
2022/12/30 09:32:02;;;;;;;2.55;1.33;;;16.70;54.90;;;;;;5054050;28;20186;-62
2022/12/30 09:34:27;;;;;;;3.78;1.92;;;16.70;55.00;;;;;;5053742;28;20175;-62
2022/12/30 09:36:53;;;;;;;3.85;1.40;;;16.70;55.00;;;;;;5052848;28;20203;-62
2022/12/30 09:39:26;;;;;;;2.08;1.45;;;16.70;54.90;;;;;;5053684;28;20258;-62
2022/12/30 09:44:57;;;;;;;2.30;1.40;;;16.70;54.90;;;;;;5037684;28;20210;-62
2022/12/30 09:47:26;;;;;;;3.42;1.52;;;16.70;54.90;;;;;;5053646;28;20259;-62
2022/12/30 09:50:14;;;;;;;3.20;1.35;;;16.70;54.80;;;;;;5052059;28;20167;-63
2022/12/30 09:52:57;;;;;;;2.50;1.35;;;16.70;54.90;;;;;;5052739;28;20175;-61
2022/12/30 09:55:31;;;;;;;4.75;1.88;;;16.70;55.00;;;;;;5053679;28;20178;-61
2022/12/30 09:58:02;;;;;;;2.67;1.27;;;16.70;55.20;;;;;;5052802;28;20584;-64
2022/12/30 10:00:29;;;;;;;5.40;1.85;;;16.60;55.30;;;;;;5052211;28;20237;-65
2022/12/30 10:03:21;;;;;;;4.68;1.35;;;16.70;54.90;;;;;;5035951;28;20186;-65
2022/12/30 10:06:18;;;;;;;3.25;1.70;;;16.70;54.90;;;;;;5052223;28;20718;-63
2022/12/30 10:08:59;;;;;;;2.22;1.33;;;16.80;55.30;;;;;;5053004;28;20187;-63
2022/12/30 10:11:45;;;;;;;3.85;1.83;;;16.90;55.10;;;;;;5053308;28;20309;-64
2022/12/30 10:14:29;;;;;;;3.17;1.38;;;17.00;55.10;;;;;;5052991;28;20309;-63
2022/12/30 10:17:26;;;;;;;3.88;0.95;;;17.10;55.20;;;;;;5051815;28;20700;-64
2022/12/30 10:20:14;;;;;;;2.15;1.25;;;17.20;55.00;;;;;;5052043;28;20591;-64
2022/12/30 10:22:58;;;;;;;1.55;1.17;;;17.40;54.80;;;;;;5031750;28;20180;-64
2022/12/30 10:25:55;;;;;;;3.00;1.45;;;17.60;54.50;;;;;;5031853;28;20262;-64
2022/12/30 10:28:29;;;;;;;2.30;1.20;;;17.80;54.20;;;;;;5032183;28;20199;-63
2022/12/30 10:30:54;;;;;;;3.17;1.40;;;18.10;53.80;;;;;;5031713;28;20206;-63
2022/12/30 10:33:21;;;;;;;2.97;1.30;;;18.20;53.60;;;;;;5031128;28;20622;-63
2022/12/30 10:36:12;;;;;;;1.95;1.45;;;18.30;53.40;;;;;;5032670;28;20179;-63
2022/12/30 10:38:38;;;;;;;3.20;1.38;;;18.40;53.30;;;;;;5032905;28;20194;-64
2022/12/30 10:41:26;;;;;;;2.53;1.20;;;18.40;53.30;;;;;;5031059;28;20168;-64
2022/12/30 10:43:56;;;;;;;2.78;1.30;;;18.50;53.20;;;;;;5031598;28;20186;-64
2022/12/30 10:46:30;;;;;;;2.40;1.08;;;18.50;53.40;;;;;;5032935;28;20290;-63
2022/12/30 10:49:13;;;;;;;2.03;1.00;;;18.60;53.10;;;;;;5032184;28;20183;-64
2022/12/30 10:51:39;;;;;;;2.33;1.23;;;18.60;53.10;;;;;;5032519;28;20172;-65
2022/12/30 10:54:06;;;;;;;2.50;1.17;;;18.70;53.10;;;;;;5030958;28;20182;-66
2022/12/30 10:56:32;;;;;;;1.52;1.13;;;18.70;53.00;;;;;;5031183;28;20242;-63
2022/12/30 10:58:59;;;;;;;1.80;1.10;;;18.70;53.00;;;;;;5031657;28;20172;-63
2022/12/30 11:01:28;;;;;;;2.22;1.00;;;18.70;53.00;;;;;;5030928;28;20184;-69
2022/12/30 11:03:58;;;;;;;1.92;0.95;;;18.70;53.00;;;;;;5032385;28;20176;-64
2022/12/30 11:06:24;;;;;;;3.08;1.40;;;18.70;52.90;;;;;;5032514;28;20207;-63
2022/12/30 11:08:51;;;;;;;1.90;1.20;;;18.70;52.90;;;;;;5031455;28;20172;-70
2022/12/30 11:11:16;;;;;;;1.88;1.00;;;18.70;52.80;;;;;;5032441;28;20271;-65
2022/12/30 11:16:38;;;;;;;3.30;1.17;;;18.70;53.00;;;;;;5030522;28;20206;-64
2022/12/30 11:19:03;;;;;;;4.80;1.00;;;18.60;53.10;;;;;;5031326;28;20176;-65
2022/12/30 11:21:31;;;;;;;2.00;0.93;;;18.60;53.20;;;;;;5032470;28;20176;-64
2022/12/30 11:23:57;;;;;;;1.92;0.90;;;18.50;53.20;;;;;;5030879;28;20317;-64
2022/12/30 11:26:25;;;;;;;2.10;1.23;;;18.60;53.40;;;;;;5032628;28;20303;-64
2022/12/30 11:28:53;;;;;;;2.28;1.25;;;18.60;53.20;;;;;;5033258;28;20329;-64
2022/12/30 11:31:19;;;;;;;1.88;1.10;;;18.50;53.20;;;;;;5035610;28;20179;-65
2022/12/30 11:33:54;;;;;;;2.65;0.93;;;18.50;53.30;;;;;;5034687;28;20179;-64
2022/12/30 11:36:30;;;;;;;3.13;0.90;;;18.50;53.30;;;;;;5034313;28;20637;-65
2022/12/30 11:39:04;;;;;;;1.13;0.80;;;18.60;53.20;;;;;;5036252;28;20191;-65
2022/12/30 11:41:30;;;;;;;1.48;0.90;;;18.60;53.30;;;;;;5036249;28;20526;-65
2022/12/30 11:43:59;;;;;;;3.10;1.17;;;18.50;53.30;;;;;;5034158;28;20556;-66
2022/12/30 11:46:33;;;;;;;1.63;0.75;;;18.50;53.30;;;;;;5035761;28;20724;-64
2022/12/30 11:49:03;;;;;;;2.95;0.93;;;18.60;53.40;;;;;;5034635;28;20519;-63
2022/12/30 11:51:33;;;;;;;1.75;0.90;;;18.60;53.30;;;;;;5034234;28;20254;-64
2022/12/30 11:54:05;;;;;;;1.38;0.85;;;18.50;53.20;;;;;;5034958;28;20172;-64
2022/12/30 11:56:30;;;;;;;1.85;0.95;;;18.50;53.40;;;;;;5034466;28;20180;-64
2022/12/30 11:58:58;;;;;;;1.88;1.10;;;18.40;53.60;;;;;;5035036;28;20172;-64
2022/12/30 12:01:24;;;;;;;1.45;1.08;;;18.40;53.60;;;;;;5035558;28;20693;-64
2022/12/30 12:03:57;;;;;;;2.00;0.80;;;18.40;53.60;;;;;;5035343;28;20290;-64
2022/12/30 12:06:23;;;;;;;1.83;1.10;;;18.30;53.40;;;;;;5034998;28;20203;-65
2022/12/30 12:08:54;;;;;;;5.47;1.38;;;18.40;53.40;;;;;;5035290;28;20538;-66
2022/12/30 12:11:25;;;;;;;3.22;1.38;;;18.50;53.30;;;;;;5034183;28;20183;-66
2022/12/30 12:14:20;;;;;;;1.00;0.80;;;18.40;53.20;;;;;;5034014;28;20180;-65
2022/12/30 12:17:25;;;;;;;3.78;1.00;;;18.40;53.20;;;;;;5033935;28;20184;-65
2022/12/30 12:20:05;;;;;;;1.35;0.80;;;18.40;53.40;;;;;;5034165;28;20180;-65
2022/12/30 12:23:01;;;;;;;2.10;0.98;;;18.30;53.60;;;;;;5020151;28;20184;-66
2022/12/30 12:25:33;;;;;;;1.15;0.90;;;18.30;53.40;;;;;;5033562;28;20178;-64
2022/12/30 12:27:58;;;;;;;3.00;1.15;;;18.20;53.50;;;;;;5033754;28;20265;-65
2022/12/30 12:30:24;;;;;;;2.30;1.00;;;18.20;53.70;;;;;;5033793;28;20176;-63
2022/12/30 12:33:07;;;;;;;2.25;1.20;;;18.10;53.60;;;;;;5034297;28;20195;-64
2022/12/30 12:35:59;;;;;;;1.80;1.30;;;18.10;53.70;;;;;;5033559;28;20254;-66
2022/12/30 12:38:46;;;;;;;3.45;1.02;;;18.20;53.50;;;;;;5035079;28;20226;-65
2022/12/30 12:41:46;;;;;;;2.88;1.20;;;18.20;53.50;;;;;;5032521;28;20264;-65
2022/12/30 12:44:49;;;;;;;2.25;1.02;;;18.20;53.50;;;;;;5033920;28;20607;-65
2022/12/30 12:47:25;;;;;;;4.18;1.15;;;18.20;53.50;;;;;;5034379;28;20563;-64
2022/12/30 12:50:12;;;;;;;1.95;1.05;;;18.30;53.60;;;;;;5033505;28;20564;-64
2022/12/30 12:52:51;;;;;;;2.38;1.10;;;18.30;53.50;;;;;;5034575;28;20222;-64
2022/12/30 12:55:37;;;;;;;3.63;1.25;;;18.30;53.40;;;;;;5032867;28;20547;-62
2022/12/30 12:58:07;;;;;;;2.58;0.90;;;18.30;53.40;;;;;;5033294;28;20250;-66
2022/12/30 13:00:58;;;;;;;3.35;1.10;;;18.20;53.50;;;;;;5033029;28;20230;-64
2022/12/30 13:03:55;;;;;;;2.47;0.98;;;18.20;53.70;;;;;;5033526;28;20176;-63
2022/12/30 13:06:39;;;;;;;1.52;0.80;;;18.20;53.70;;;;;;5033448;28;20261;-62
2022/12/30 13:09:21;;;;;;;2.30;1.10;;;18.20;54.30;;;;;;5032490;28;20642;-65
2022/12/30 13:12:18;;;;;;;3.53;1.25;;;18.30;53.60;;;;;;5032865;28;20177;-66
2022/12/30 13:14:53;;;;;;;1.85;0.75;;;18.30;53.60;;;;;;5060342;28;20179;-65
2022/12/30 13:17:41;;;;;;;3.05;0.93;;;18.30;53.60;;;;;;5060731;28;20699;-64
2022/12/30 13:20:12;;;;;;;2.00;0.75;;;18.30;53.50;;;;;;5056465;28;20533;-65
2022/12/30 13:22:38;;;;;;;2.67;1.20;;;18.30;53.40;;;;;;5055098;28;20182;-64
2022/12/30 13:25:13;;;;;;;1.55;1.02;;;18.20;53.40;;;;;;5052216;28;20541;-64
2022/12/30 13:27:38;;;;;;;2.70;1.00;;;18.30;53.40;;;;;;5052417;28;20587;-64
2022/12/30 13:30:05;;;;;;;2.50;0.88;;;18.30;53.30;;;;;;5060804;28;20631;-64
2022/12/30 13:32:47;;;;;;;2.42;0.90;;;18.20;53.30;;;;;;5073908;28;20182;-64
2022/12/30 13:35:30;;;;;;;1.50;1.10;;;18.20;53.40;;;;;;5072862;28;20174;-64
2022/12/30 13:38:14;;;;;;;2.72;1.27;;;18.20;53.40;;;;;;5073180;28;20174;-66
2022/12/30 13:41:11;;;;;;;2.10;0.90;;;18.10;53.40;;;;;;5073468;28;20537;-65
2022/12/30 13:43:41;;;;;;;3.47;1.48;;;18.10;53.50;;;;;;5072767;28;20180;-65
2022/12/30 13:46:26;;;;;;;1.38;0.70;;;18.10;53.50;;;;;;5072501;28;20182;-65
2022/12/30 13:49:24;;;;;;;2.88;1.17;;;18.20;53.50;;;;;;5033268;28;20635;-64
2022/12/30 13:52:00;;;;;;;3.15;1.15;;;18.20;54.10;;;;;;5031302;28;20195;-65
2022/12/30 13:54:26;;;;;;;1.73;1.00;;;18.20;53.40;;;;;;5033690;28;20179;-64
2022/12/30 13:56:52;;;;;;;1.45;0.70;;;18.20;53.30;;;;;;5032814;28;20172;-65
2022/12/30 13:59:26;;;;;;;1.90;0.75;;;18.20;53.20;;;;;;5032279;28;20534;-65
2022/12/30 14:02:17;;;;;;;1.00;0.70;;;18.20;53.40;;;;;;5033198;28;20184;-66